Tiempo atmosférico en la estación meteorológica de Cervera De Pisuerga, Palencia (1140 m.)



Fecha
DESCASC
Temp. máxima en grados centígrados (hora)
DESCASC
Temp. mínima en grados centígrados (hora)
DESCASC
Temp. media en grados centígrados
DESCASC
Racha de viento máxima en m/sg (hora)
DESCASC
Velocidad máxima media en intervalos de 10 minutos(hora)
DESCASC
Precipitaciones diarias en mm
DESCASC
Precipitaciones de 00:00 a 06:00 en mm
DESCASC
Precipitaciones de 06:00 a 12:00 en mm
DESCASC
Precipitaciones de 12:00 a 18:00 en mm
DESCASC
Precipitaciones de 18:00 a 24:00 en mm
DESCASC
19-01-2020 2.3 (03:10) -1.6 (21:40) 0.3 21.11 (17:20) 9.17 (08:30) 2.2 1 1 0.2 0
18-01-2020 8.2 (14:30) -0.4 (23:59) 3.9 10.28 (14:40) 3.89 (17:30) 3.2 0 0.2 2.8 0.2
17-01-2020 8.1 (15:00) -0.7 (22:50) 3.7 -- (--) -- (--) 3.6 3.6 0 0 0
16-01-2020 8.7 (15:40) 4.5 (00:00) 6.6 -- (--) -- (--) 6 1.6 0.8 0 3.6
15-01-2020 7.7 (13:20) 3.7 (00:00) 5.7 -- (--) -- (--) 7.8 4.2 3.6 0 0
14-01-2020 8.6 (15:10) -0.6 (-00:0) 4 -- (--) -- (--) 1.4 0 0 0 1.4
13-01-2020 10.2 (15:50) -3.7 (-00:0) 3.2 8.89 (14:30) 5 (14:00) 0 0 0 0 0
12-01-2020 11.6 (14:20) -2.1 (05:00) 4.8 5.83 (14:40) 4.17 (15:40) 0 0 0 0 0
11-01-2020 11.2 (15:50) -4.3 (-00:0) 3.4 5.56 (01:20) 3.33 (18:40) 0 0 0 0 0
10-01-2020 5.5 (12:20) -2.7 (-00:0) 1.4 8.33 (13:40) 4.44 (13:40) 0 0 0 0 0
09-01-2020 13.5 (15:00) 0.3 (00:00) 6.9 13.89 (14:20) 6.39 (14:20) 0 0 0 0 0
08-01-2020 16.5 (16:00) 2.7 (00:00) 9.6 6.11 (14:10) 5 (21:40) 0 0 0 0 0
07-01-2020 16 (14:30) -0.3 (00:00) 7.8 6.39 (22:40) 4.17 (20:50) 0 0 0 0 0
06-01-2020 12 (14:00) -1.8 (-00:0) 5.1 5.83 (08:40) 3.33 (14:00) 0 0 0 0 0
05-01-2020 17.4 (15:50) -3 (-00:0) 7.2 6.39 (20:40) 4.72 (19:40) 0 0 0 0 0
04-01-2020 10.7 (15:30) -2 (-00:0) 4.3 5.83 (07:10) 3.33 (04:30) 0 0 0 0 0
03-01-2020 8.6 (15:20) -2.1 (-00:0) 3.3 6.11 (15:50) 3.61 (15:30) 0 0 0 0 0
02-01-2020 12 (15:50) -0.7 (-00:0) 5.7 5.56 (17:00) 2.78 (01:20) 0 0 0 0 0
01-01-2020 15 (15:10) 0.1 (00:00) 7.6 5.56 (02:00) 3.89 (19:40) 0 0 0 0 0
31-12-2019 16.8 (14:50) 2.2 (00:00) 9.5 7.22 (00:50) 4.72 (11:00) 0 0 0 0 0
30-12-2019 21.2 (14:10) 4.9 (00:00) 13.1 7.5 (08:10) 4.72 (23:40) 0 0 0 0 0
29-12-2019 19.9 (16:10) 4 (00:00) 11.9 7.5 (04:40) 4.44 (09:50) 0 0 0 0 0
28-12-2019 18.5 (14:50) 1.8 (00:00) 10.1 7.22 (22:00) 4.72 (22:50) 0 0 0 0 0
27-12-2019 16.6 (14:40) -0.2 (00:00) 8.2 6.39 (11:40) 4.44 (11:30) 0 0 0 0 0
26-12-2019 9.3 (00:10) -1 (-00:0) 4.2 5.83 (05:20) 3.61 (23:10) 0 0 0 0 0
25-12-2019 17.3 (15:00) 2.8 (00:00) 10 9.17 (23:30) 5.28 (18:00) 0 0 0 0 0
24-12-2019 14.2 (16:30) 3 (00:00) 8.6 7.22 (00:30) 4.72 (17:20) 0 0 0 0 0
23-12-2019 11.3 (15:20) -1.2 (-00:0) 5.1 -- (--) -- (--) 0 0 0 0 0
22-12-2019 10.8 (15:30) 2.4 (23:59) 6.6 -- (--) -- (--) 2.8 0.2 1.2 1.4 0

Gráficas

Temp. máximas Temp. mínimas Temp. medias Precipitaciones Rachas de viento máximas Velocidades máximas media en intervalos de 10 minutos

Datos horarios

Fecha y hora oficial Temperatura (ºC) Velocidad del viento (km/h) Dirección del viento Racha (km/h) Dirección de racha Precipitación (mm) Presión (hPa) Tendencia (hPa) Humedad (%)
2020-01-20 23:00:00 -2 17 Norte 39 Norte 0 897.6 0.1 87
2020-01-20 22:00:00 -2.1 18 Norte 41 Norte 0 897.9 0.8 86
2020-01-20 21:00:00 -2.1 19 Norte 47 Norte 0 897.5 0.8 81
2020-01-20 20:00:00 -2.1 17 Norte 38 Norte 0 897.5 0.9 79
2020-01-20 19:00:00 -2.3 15 Noroeste 40 Norte 0 897.1 0.3 79
2020-01-20 18:00:00 -1.8 18 Norte 43 Norte 0 896.7 -0.1 73
2020-01-20 17:00:00 -1.4 13 Noroeste 37 Norte 0 896.6 -0.3 71
2020-01-20 16:00:00 -1.3 18 Norte 46 Norte 0 896.8 -0.9 69
2020-01-20 15:00:00 -1.2 22 Norte 47 Norte 0 896.8 -0.6 63
2020-01-20 14:00:00 0.1 23 Norte 53 Norte 0 896.9 -2.1 60
2020-01-20 13:00:00 -0.1 22 Noroeste 55 Norte 0 897.7 -0.8 61
2020-01-20 12:00:00 -1 27 Norte 67 Norte 0 897.4 -0.5 63
2020-01-20 11:00:00 -1.8 20 Noroeste 40 Noroeste 0 899 1.3 68
2020-01-20 10:00:00 -2.5 14 Noroeste 33 Norte 0 898.5 1 65
2020-01-20 09:00:00 -2.8 14 Noroeste 40 Norte 0 897.9 0.3 73
2020-01-20 08:00:00 -3.2 15 Norte 46 Norte 0 897.7 0.1 85
2020-01-20 07:00:00 -3 17 Norte 38 Norte 0 897.5 -1.1 84
2020-01-20 06:00:00 -2.1 13 Nordeste 40 Nordeste 0 897.6 -1.7 75
2020-01-20 05:00:00 -2.5 12 Norte 46 Norte 0 897.6 -2.4 77
2020-01-20 04:00:00 -2.3 15 Norte 32 Norte 0 898.6 -1.4 83
2020-01-20 03:00:00 -2.3 14 Norte 30 Norte 0 899.3 -0.5 78
2020-01-20 02:00:00 -2.1 16 Norte 47 Norte 0 900 0.2 78
2020-01-20 01:00:00 -2 16 Norte 48 Norte 0 900 0.5 71
2020-01-20 00:00:00 -1.3 19 Norte 50 Norte 0 899.8 0.3 63
2020-01-19 23:00:00 -1.2 20 Norte 62 Norte 0 899.8 0.9 62
2020-01-19 22:00:00 -1.4 19 Norte 67 Norte 0 899.5 1.3 78
2020-01-19 21:00:00 -1.1 23 Norte 69 Norte 0 899.5 0.9 70
2020-01-19 20:00:00 -0.8 22 Norte 69 Norte 0 898.9 0.4 70
2020-01-19 19:00:00 -0.7 25 Norte 69 Nordeste 0 898.2 -0.2 67
2020-01-19 18:00:00 -0.6 24 Norte 76 Norte 0 898.6 -0.3 66
2020-01-19 17:00:00 0.2 25 Norte 66 Norte 0 898.5 -0.2 61
2020-01-19 16:00:00 0.6 21 Norte 47 Norte 0 898.4 -0.4 65
2020-01-19 15:00:00 0.9 21 Norte 55 Noroeste 0 898.9 0.6 69
2020-01-19 14:00:00 1.6 26 Norte 57 Noroeste 0 898.7 1.3 74
2020-01-19 13:00:00 1.3 24 Norte 62 Norte 0.2 898.8 2.5 80
2020-01-19 12:00:00 0.8 26 Norte 59 Norte 0.4 898.3 3.4 77
2020-01-19 11:00:00 0.8 29 Norte 64 Norte 0.2 897.4 3.6 82
2020-01-19 10:00:00 0.6 32 Norte 69 Norte 0 896.3 4.1 76
2020-01-19 09:00:00 0.7 26 Norte 71 Norte 0 894.9 3.3 86
2020-01-19 08:00:00 0.6 24 Norte 54 Norte 0.4 893.8 2.8 91
2020-01-19 07:00:00 1.2 21 Norte 50 Norte 0 892.2 1.6 90
2020-01-19 06:00:00 1.2 21 Norte 49 Norte 0.6 891.6 1.1 91
2020-01-19 05:00:00 1.5 17 Norte 33 Norte 0.4 891 0.5 91
2020-01-19 04:00:00 2 9 Noroeste 23 Noroeste 0 890.6 0.6 88
2020-01-19 03:00:00 1.8 10 Noroeste 25 Norte 0 890.5 0.9 92
2020-01-19 02:00:00 -0.2 3 Oeste 18 Oeste 0 890.5 1.2 94
2020-01-19 01:00:00 0.3 5 Noroeste 14 Oeste 0 890 1 95
2020-01-19 00:00:00 -0.3 7 Oeste 19 Sur 0 889.6 1.3 95
2020-01-18 23:00:00 -0.2 4 Noroeste 8 Noroeste 0 889.3 1.6 94
2020-01-18 22:00:00 0.2 4 Nordeste 9 Oeste 0 889 2.7 93
2020-01-18 21:00:00 0.9 8 Este 21 Sudoeste 0 888.3 2 92
2020-01-18 20:00:00 1.2 4 Oeste 22 Norte 0.2 887.7 1.7 91
2020-01-18 19:00:00 1.9 8 Noroeste 21 Noroeste 0 886.3 0 88
2020-01-18 18:00:00 3.4 8 Noroeste 33 Oeste 2.6 886.3 -0.7 89
2020-01-18 17:00:00 5.7 8 Nordeste 16 Sur 0.2 886 -2.3 87
2020-01-18 16:00:00 6.3 9 Sudoeste 24 Sudoeste 0 886.3 -3.8 86
2020-01-18 15:00:00 6.9 9 Oeste 37 Sur 0 887 -4.7 78
2020-01-18 14:00:00 6.3 8 Noroeste 27 Norte 0 888.3 -4.3 86
2020-01-18 13:00:00 3.5 8 Nordeste 26 Sudeste 0 890.1 -3 93
2020-01-18 12:00:00 3.3 7 Nordeste 19 Norte 0.2 891.7 -2.1 90
2020-01-18 11:00:00 2.6 8 Sur 27 Sur 0 892.6 -1.5 90
2020-01-18 10:00:00 2 10 Sur 28 Sur 0 893.1 -1.2 87
2020-01-18 09:00:00 2.4 10 Sur 27 Sudoeste 0 893.8 -1.1 78
2020-01-18 08:00:00 1.9 6 Sudeste 15 Sudeste 0 894.1 -1.3 76
2020-01-18 07:00:00 2.4 5 Sudeste 29 Sur 0 894.3 -1.4 74
2020-01-18 06:00:00 2.4 12 Sudoeste 28 Sur 0 894.9 -1.4 74
2020-01-18 05:00:00 2.1 12 Sudoeste 24 Sur 0 895.4 -1.1 71
2020-01-18 04:00:00 1.6 8 Sudeste 24 Sudoeste 0 895.7 -1.4 75
2020-01-18 03:00:00 0.9 4 Norte 18 Sudeste 0 896.3 -1.5 81
2020-01-18 02:00:00 1.5 8 Sur 25 Sur 0 896.5 -1.5 77
2020-01-18 01:00:00 0.8 5 Norte 20 Oeste 0 897.1 -1.3 87
2020-01-18 00:00:00 -0.2 6 Este 19 Sudoeste 0 897.8 -0.8 91
2020-01-17 23:00:00 -0.6 2 Este 17 Sur 0 898 -0.3 89
2020-01-17 22:00:00 0 4 Nordeste 18 Sudoeste 0 898.4 0.3 86
2020-01-17 21:00:00 0.3 4 Este 9 Noroeste 0 898.6 0.9 82
2020-01-17 20:00:00 1 5 Nordeste 12 Sudoeste 0 898.3 1.3 75
2020-01-17 19:00:00 2.6 6 Sudoeste 23 Oeste 0 898.1 1.6 67
2020-01-17 18:00:00 3.5 10 Sudoeste 30 Sudoeste 0 897.7 1.7 68
2020-01-17 17:00:00 4.9 13 Sudoeste 31 Sudoeste 0 897 0.9 63
2020-01-17 16:00:00 6.3 11 Sudoeste 21 Oeste 0 896.5 0.5 53
2020-01-17 15:00:00 7.1 12 Sudoeste 30 Sudoeste 0 896 -0.1 52
2020-01-17 14:00:00 7.1 14 Sudoeste 32 Sudoeste 0 896.1 0.8 59
2020-01-17 13:00:00 7.5 13 Sudoeste 31 Sudoeste 0 896 1.7 58
2020-01-17 12:00:00 6.8 15 Sudoeste 30 Sudoeste 0 896.1 2.4 63
2020-01-17 11:00:00 5.7 6 Sudoeste 28 Oeste 0 895.3 2.4 63
2020-01-17 10:00:00 3.7 9 Oeste 25 Oeste 0 894.3 2.3 66
2020-01-17 09:00:00 2.3 12 Sudoeste 30 Oeste 0 893.7 2.2 76
2020-01-17 08:00:00 2.9 18 Sudoeste -- -- 0 892.9 1.5 71
2020-01-17 07:00:00 3.2 -- -- -- -- 0 892 0.5 78
2020-01-17 06:00:00 3.7 -- -- -- -- 0 891.5 0.8 87
2020-01-17 05:00:00 3.2 14 Sudoeste 27 Sudoeste 0.2 891.4 0.4 91
2020-01-17 04:00:00 3.5 -- -- -- -- 2.8 891.5 1 92
2020-01-17 03:00:00 4.4 -- -- -- -- 0.2 890.7 0.5 91
2020-01-17 02:00:00 4.5 -- -- -- -- 0.4 891 1 89
2020-01-17 01:00:00 4.8 -- -- -- -- 0 890.5 0.8 89
2020-01-17 00:00:00 5 -- -- -- -- 0 890.2 0.6 89
2020-01-16 23:00:00 4.8 -- -- -- -- 1.2 890 0.3 91
2020-01-16 22:00:00 4.7 -- -- -- -- 0.4 889.7 0.7 89
2020-01-16 21:00:00 4.7 -- -- -- -- 0.6 889.6 1.1 87
2020-01-16 20:00:00 4.7 -- -- -- -- 1 889.7 0.9 86
2020-01-16 19:00:00 5.6 -- -- -- -- 0.4 889 0.6 79
2020-01-16 18:00:00 6.6 -- -- -- -- 0 888.5 0 66
2020-01-16 17:00:00 7.2 -- -- -- -- 0 888.8 -0.9 67
2020-01-16 16:00:00 8 -- -- -- -- 0 888.4 -2.3 66
2020-01-16 15:00:00 8.5 39 Sudoeste 71 Sudoeste 0 888.5 -3.5 69
2020-01-16 14:00:00 7.6 34 Sudoeste 67 Sudoeste 0 889.7 -2.7 77
2020-01-16 13:00:00 6.9 36 Sudoeste -- -- 0 890.7 -1.4 89
2020-01-16 12:00:00 6.5 -- -- -- -- 0.4 892 0.3 93
2020-01-16 11:00:00 6.5 -- -- -- -- 0.4 892.4 0.3 93
2020-01-16 10:00:00 6.3 -- -- -- -- 0 892.1 0.2 93
2020-01-16 09:00:00 6 -- -- -- -- 0 891.7 -0.1 95
2020-01-16 08:00:00 6.3 -- -- -- -- 0 892.1 0.2 94
2020-01-16 07:00:00 6.3 -- -- -- -- 0 891.9 -0.1 94
2020-01-16 06:00:00 6.4 15 Sudoeste 42 Sudoeste 0 891.8 -0.2 95
2020-01-16 05:00:00 6.5 16 Sudoeste -- -- 0.2 891.9 -0.6 94
2020-01-16 04:00:00 6.9 -- -- -- -- 0.6 892 -0.9 93
2020-01-16 03:00:00 6.8 -- -- -- -- 0.2 892 -0.9 94
2020-01-16 02:00:00 6.6 14 Sudoeste -- -- 0.4 892.5 -0.5 93
2020-01-16 01:00:00 6.7 16 Sudoeste 37 Sudoeste 0.2 892.9 0.1 92
2020-01-16 00:00:00 6.9 -- -- -- -- 0 892.9 0.1 87
2020-01-15 23:00:00 7 -- -- -- -- 0 893 0.5 83
2020-01-15 22:00:00 6.5 8 Oeste -- -- 0 892.8 0.8 79
2020-01-15 21:00:00 6.6 10 Sudoeste -- -- 0 892.8 1.6 77
2020-01-15 20:00:00 6.4 10 Sudoeste -- -- 0 892.5 1.9 78
2020-01-15 19:00:00 6.5 9 Sudoeste -- -- 0 892 1.8 77
2020-01-15 18:00:00 6.5 13 Sudoeste 27 Sudoeste 0 891.2 1.4 77
2020-01-15 17:00:00 6.8 12 Sudoeste -- -- 0 890.6 1 79
2020-01-15 16:00:00 6.7 14 Sudoeste 38 Oeste 0 890.2 1.3 80
2020-01-15 15:00:00 6.1 -- -- -- -- 0 889.8 0.9 83
2020-01-15 14:00:00 6.6 7 Oeste 39 Sudoeste 0 889.6 1.6 83
2020-01-15 13:00:00 6.2 -- -- -- -- 0 888.9 1.5 92
2020-01-15 12:00:00 4.9 14 Sudoeste -- -- 0.6 888.9 2.4 94
2020-01-15 11:00:00 4.7 -- -- -- -- 1.4 888 2.3 94
2020-01-15 10:00:00 4.5 -- -- -- -- 1.4 887.4 2.6 95
2020-01-15 09:00:00 4.4 -- -- -- -- 0.2 886.5 2.1 94
2020-01-15 08:00:00 4.2 -- -- -- -- 0 885.7 1.5 94
2020-01-15 07:00:00 4.3 -- -- -- -- 0 884.8 0.2 93
2020-01-15 06:00:00 4.3 -- -- -- -- 0.4 884.4 -0.5 94
2020-01-15 05:00:00 4.4 -- -- -- -- 1.2 884.2 -1 94
2020-01-15 04:00:00 4.4 -- -- -- -- 0.6 884.6 -1.1 94
2020-01-15 03:00:00 4.3 -- -- -- -- 0.8 884.9 -0.7 94
2020-01-15 02:00:00 4 -- -- -- -- 1.2 885.2 -0.7 93
2020-01-15 01:00:00 4.2 -- -- -- -- 0 885.7 -0.8 93
2020-01-15 00:00:00 3.9 -- -- -- -- 0.6 885.6 -1 93
2020-01-14 23:00:00 3.7 -- -- -- -- 0.8 885.9 -0.8 92
2020-01-14 22:00:00 3.7 22 Sudoeste 51 Sur 0 886.5 -0.1 87
2020-01-14 21:00:00 4.4 22 Sudoeste 55 Sur 0 886.6 0.3 84
2020-01-14 20:00:00 4.6 20 Sudoeste -- -- 0 886.7 0.2 83
2020-01-14 19:00:00 4.7 15 Sudoeste 53 Sur 0 886.6 0 81
2020-01-14 18:00:00 4.6 17 Sudoeste 42 Sudoeste 0 886.3 -0.4 81
2020-01-14 17:00:00 4.9 15 Sudoeste 35 Oeste 0 886.5 -0.8 78
2020-01-14 16:00:00 4.8 11 Sudoeste 37 Sur 0 886.6 -1.6 79
2020-01-14 15:00:00 8.1 10 Oeste 33 Oeste 0 886.7 -2.1 67
2020-01-14 14:00:00 7.8 15 Sudoeste 34 Noroeste 0 887.3 -1.4 63
2020-01-14 13:00:00 3.7 6 Sur 30 Oeste 0 888.2 0.1 79
2020-01-14 12:00:00 2.6 8 Noroeste 24 Sur 0 888.8 0.9 88
2020-01-14 11:00:00 2.2 4 Este 28 Oeste 0 888.7 1.2 89
2020-01-14 10:00:00 2 8 Sudeste 26 Sur 0 888.1 0.5 88
2020-01-14 09:00:00 2.3 13 Sudoeste 35 Sudoeste 0 887.9 0.4 86
2020-01-14 08:00:00 1.9 7 Oeste 20 Oeste 0 887.5 0 88
2020-01-14 07:00:00 1.8 4 Sudoeste 23 Sudoeste 0 887.6 0 87
2020-01-14 06:00:00 1.8 4 Nordeste 13 Oeste 0 887.5 0 85
2020-01-14 05:00:00 2.3 3 Sur 24 Sur 0 887.5 -0.6 83
2020-01-14 04:00:00 1.9 3 Sur 22 Sudoeste 0 887.6 -1 84
2020-01-14 03:00:00 1.6 10 Sudoeste 23 Sur 0 887.5 -0.9 86
2020-01-14 02:00:00 0.2 4 Norte 18 Sudoeste 0 888.1 -0.7 85
2020-01-14 01:00:00 2.1 13 Sudoeste -- -- 0 888.6 -0.3 82
2020-01-14 00:00:00 -0.6 6 Sur 22 Sudoeste 0 888.4 -1.1 89
2020-01-13 23:00:00 -2.7 6 Nordeste 14 Sudoeste 0 888.8 -0.2 91
2020-01-13 22:00:00 -3.5 6 Nordeste 11 Nordeste 0 888.9 0.2 92
2020-01-13 21:00:00 -3.5 4 Nordeste 13 Oeste 0 889.5 0.9 91
2020-01-13 20:00:00 -3.1 5 Norte 13 Norte 0 889 0.2 88
2020-01-13 19:00:00 -1.6 5 Norte 17 Sudeste 0 888.7 -0.3 83
2020-01-13 18:00:00 2.5 6 Este 30 Sur 0 888.6 -0.6 62
2020-01-13 17:00:00 6 6 Sur 21 Este 0 888.8 -1.2 42
2020-01-13 16:00:00 7.6 7 Sur 26 Sudeste 0 889 -1.9 42
2020-01-13 15:00:00 7.9 15 Sudeste 32 Sudoeste 0 889.2 -2.8 39
2020-01-13 14:00:00 7.1 18 Sudeste 27 Sudeste 0 890 -2.1 43
2020-01-13 13:00:00 4.8 7 Este 16 Sudoeste 0 890.9 -0.9 52
2020-01-13 12:00:00 1.1 4 Este 18 Oeste 0 892 0.3 58
2020-01-13 11:00:00 -0.6 4 Norte 14 Sur 0 892.1 0 60
2020-01-13 10:00:00 -2.7 5 Sudoeste 18 Oeste 0 891.8 -0.4 63
2020-01-13 09:00:00 -3.1 3 Noroeste 20 Oeste 0 891.7 -0.9 57
2020-01-13 08:00:00 -2 5 Noroeste 19 Oeste 0 892.1 -1.3 52
2020-01-13 07:00:00 -2.1 5 Noroeste 21 Oeste 0 892.2 -1.7 55
2020-01-13 06:00:00 -1.9 5 Noroeste 19 Oeste 0 892.6 -1.6 56
2020-01-13 05:00:00 -1.4 4 Noroeste 19 Oeste 0 893.4 -1.6 57
2020-01-13 04:00:00 -1.4 0 Calma 5 Oeste 0 893.9 -1.7 53
2020-01-13 03:00:00 -0.3 3 Oeste 12 Noroeste 0 894.2 -2.1 55
2020-01-13 02:00:00 -0.5 7 Noroeste 12 Noroeste 0 895 -1.5 60
2020-01-13 01:00:00 -0.3 4 Noroeste 12 Oeste 0 895.6 -1.2 69
2020-01-13 00:00:00 0.5 5 Noroeste 10 Noroeste 0 896.3 -0.8 72
2020-01-12 23:00:00 0.7 6 Noroeste 12 Noroeste 0 896.5 -1 72
2020-01-12 22:00:00 0.7 8 Noroeste 14 Oeste 0 896.8 -0.7 73
2020-01-12 21:00:00 1.7 5 Oeste 17 Oeste 0 897.1 0.1 70
2020-01-12 20:00:00 2.5 7 Noroeste 18 Oeste 0 897.5 0.3 67
2020-01-12 19:00:00 3.7 7 Oeste 17 Oeste 0 897.5 0.4 64
2020-01-12 18:00:00 6 10 Sur 19 Sur 0 897 -0.2 58
2020-01-12 17:00:00 9.5 12 Sudeste 19 Sur 0 897.2 -0.5 49
2020-01-12 16:00:00 10.8 12 Sudeste 21 Sur 0 897.1 -1.5 41
2020-01-12 15:00:00 11.4 12 Sudeste 21 Este 0 897.2 -2 40
2020-01-12 14:00:00 10.9 11 Sudeste 20 Sur 0 897.7 -1.3 38
2020-01-12 13:00:00 9.7 9 Sur 14 Sur 0 898.6 -0.1 39
2020-01-12 12:00:00 9.5 4 Sudeste 15 Oeste 0 899.2 0.9 39
2020-01-12 11:00:00 5.5 4 Noroeste 13 Noroeste 0 899 1 38
2020-01-12 10:00:00 1.9 4 Noroeste 13 Oeste 0 898.7 0.8 44
2020-01-12 09:00:00 -0.2 7 Noroeste 13 Oeste 0 898.3 0.5 50
2020-01-12 08:00:00 0.7 10 Noroeste 20 Noroeste 0 898 0 47
2020-01-12 07:00:00 -0.5 8 Noroeste 15 Noroeste 0 897.9 -0.1 55
2020-01-12 06:00:00 -0.9 6 Noroeste 18 Oeste 0 897.8 0.1 54
2020-01-12 05:00:00 -2.1 6 Oeste 17 Oeste 0 898 0.4 63
2020-01-12 04:00:00 -0.8 5 Noroeste 11 Oeste 0 898 0.1 55
2020-01-12 03:00:00 -0.9 4 Oeste 13 Oeste 0 897.7 -0.4 57
2020-01-12 02:00:00 0.1 3 Sur 16 Oeste 0 897.6 -0.5 57
2020-01-12 01:00:00 0.7 8 Noroeste 16 Noroeste 0 897.9 -0.2 61
2020-01-12 00:00:00 -0.2 4 Noroeste 10 Oeste 0 898.1 -0.1 63
2020-01-11 23:00:00 0.6 5 Noroeste 18 Oeste 0 898.1 -0.3 62
2020-01-11 22:00:00 1 5 Noroeste 16 Oeste 0 898.1 0.1 66
2020-01-11 21:00:00 2.6 8 Noroeste 17 Oeste 0 898.2 0.5 63
2020-01-11 20:00:00 2.3 5 Oeste 17 Oeste 0 898.4 0.8 64
2020-01-11 19:00:00 4.6 8 Oeste 17 Oeste 0 898 0.4 57
2020-01-11 18:00:00 6.3 5 Norte 14 Sur 0 897.7 0 48
2020-01-11 17:00:00 10.3 8 Sudeste 17 Sur 0 897.6 -0.7 41
2020-01-11 16:00:00 11.2 9 Sur 17 Sur 0 897.6 -1.6 37
2020-01-11 15:00:00 10.1 11 Sudeste 20 Sur 0 897.7 -2.2 38
2020-01-11 14:00:00 7.2 6 Nordeste -- -- 0 898.3 -1.7 58
2020-01-11 13:00:00 6.6 2 Sur 16 Sudoeste 0 899.2 -0.5 61
2020-01-11 12:00:00 3.3 4 Oeste 18 Oeste 0 899.9 0.3 68
2020-01-11 11:00:00 0.2 5 Noroeste 19 Oeste 0 900 0.6 78
2020-01-11 10:00:00 -2.2 6 Oeste 18 Oeste 0 899.7 0.4 80
2020-01-11 09:00:00 -3.5 8 Noroeste 13 Oeste 0 899.6 0.3 85
2020-01-11 08:00:00 -4 6 Noroeste 14 Oeste 0 899.4 -0.1 88
2020-01-11 07:00:00 -3.1 3 Noroeste 16 Oeste 0 899.3 -0.5 87
2020-01-11 06:00:00 -2.9 6 Noroeste 13 Noroeste 0 899.3 -0.6 87
2020-01-11 05:00:00 -2.4 6 Noroeste 15 Noroeste 0 899.5 -0.2 89
2020-01-11 04:00:00 -3.2 8 Noroeste 17 Oeste 0 899.8 -0.3 90
2020-01-11 03:00:00 -2.3 3 Oeste 13 Oeste 0 899.9 -0.3 88
2020-01-11 02:00:00 -1.4 5 Noroeste 20 Oeste 0 899.7 -0.4 88
2020-01-11 01:00:00 -1.1 6 Noroeste 17 Oeste 0 900.1 -0.2 86
2020-01-11 00:00:00 -1.1 4 Noroeste 15 Norte 0 900.2 0.1 87
2020-01-10 23:00:00 -0.1 6 Noroeste 15 Noroeste 0 900.1 0.4 86
2020-01-10 22:00:00 -0.6 6 Noroeste 12 Noroeste 0 900.3 1 87
2020-01-10 21:00:00 0.1 2 Sudoeste 21 Norte 0 900.1 1.2 86
2020-01-10 20:00:00 1 12 Norte 19 Norte 0 899.7 1.2 85
2020-01-10 19:00:00 1.1 12 Norte 20 Norte 0 899.3 0.9 88
2020-01-10 18:00:00 1.9 14 Norte 24 Norte 0 898.9 1.1 86
2020-01-10 17:00:00 4.3 11 Norte 29 Noroeste 0 898.5 0.5 69
2020-01-10 16:00:00 4.6 12 Norte 29 Norte 0 898.4 0.4 72
2020-01-10 15:00:00 4.2 12 Noroeste 26 Nordeste 0 897.8 -0.6 74
2020-01-10 14:00:00 4 12 Norte 30 Norte 0 898 0 74
2020-01-10 13:00:00 4.9 12 Norte 24 Norte 0 898 0.8 70
2020-01-10 12:00:00 4.6 13 Norte 24 Norte 0 898.4 1.8 67
2020-01-10 11:00:00 2.2 8 Norte 23 Norte 0 898 1.6 86
2020-01-10 10:00:00 -1 7 Noroeste 19 Oeste 0 897.2 1.4 90
2020-01-10 09:00:00 -2.6 6 Oeste 19 Oeste 0 896.6 1.4 92
2020-01-10 08:00:00 -1.9 4 Noroeste 19 Oeste 0 896.4 1.6 93
2020-01-10 07:00:00 -1.4 4 Oeste 18 Oeste 0 895.8 0.8 94
2020-01-10 06:00:00 -1 6 Oeste 19 Oeste 0 895.2 0.9 94
2020-01-10 05:00:00 -1.2 5 Nordeste 16 Sudoeste 0 894.8 0.9 92
2020-01-10 04:00:00 -2 5 Norte 13 Este 0 895 0.9 86
2020-01-10 03:00:00 -0.7 3 Sudoeste 18 Oeste 0 894.3 0.3 80
2020-01-10 02:00:00 0.9 5 Oeste 16 Sudoeste 0 893.9 0.2 70
2020-01-10 01:00:00 1.9 7 Noroeste 17 Noroeste 0 894.1 1.5 67
2020-01-10 00:00:00 1.2 8 Noroeste 18 Noroeste 0 894 2 86
2020-01-09 23:00:00 2.8 2 Sudoeste 12 Sur 0 893.7 1.9 94
2020-01-09 22:00:00 2.6 3 Sudeste 16 Oeste 0 892.6 0.6 91
2020-01-09 21:00:00 3.4 7 Noroeste 17 Noroeste 0 892 0.5 88
2020-01-09 20:00:00 4.6 9 Norte 22 Sudoeste 0 891.8 0.6 88
2020-01-09 19:00:00 5.3 5 Nordeste 35 Sudoeste 0 892 1.1 87
2020-01-09 18:00:00 7.3 16 Sudoeste 32 Sudoeste 0 891.5 1.1 76
2020-01-09 17:00:00 9.3 10 Sudoeste 40 Sudoeste 0 891.2 0.2 67
2020-01-09 16:00:00 11.7 12 Sudoeste 36 Oeste 0 890.9 -1.2 58
2020-01-09 15:00:00 13.3 9 Oeste 50 Oeste 0 890.4 -2.7 55
2020-01-09 14:00:00 13.2 18 Sudoeste 39 Sudoeste 0 891 -2.5 59
2020-01-09 13:00:00 11.5 13 Sudoeste 33 Sudoeste 0 892.1 -1.3 65
2020-01-09 12:00:00 11.6 13 Sudoeste 40 Sudoeste 0 893.1 -0.2 66
2020-01-09 11:00:00 7.9 6 Norte 18 Oeste 0 893.5 -0.2 77
2020-01-09 10:00:00 3.7 6 Sudeste 17 Sudoeste 0 893.4 -0.2 87
2020-01-09 09:00:00 2.6 7 Noroeste 19 Oeste 0 893.3 -0.7 83
2020-01-09 08:00:00 0.8 6 Norte 15 Oeste 0 893.7 -0.5 84
2020-01-09 07:00:00 1.3 6 Noroeste 15 Oeste 0 893.6 -1.4 80
2020-01-09 06:00:00 2.4 6 Norte 14 Nordeste 0 894 -1.2 83
2020-01-09 05:00:00 2.8 6 Oeste 14 Oeste 0 894.2 -1.4 80
2020-01-09 04:00:00 3.3 5 Oeste 15 Oeste 0 895 -1 78
2020-01-09 03:00:00 3.8 5 Sudoeste 17 Oeste 0 895.2 -1.3 73
2020-01-09 02:00:00 4.7 9 Oeste 17 Oeste 0 895.6 -1.3 71
2020-01-09 01:00:00 5.3 8 Oeste 18 Oeste 0 896 -0.9 68
2020-01-09 00:00:00 6.5 12 Oeste 20 Oeste 0 896.5 -0.4 66
2020-01-08 23:00:00 6.2 13 Oeste 21 Oeste 0 896.9 -0.1 63
2020-01-08 22:00:00 6.6 13 Oeste 21 Oeste 0 896.9 -0.2 62
2020-01-08 21:00:00 6.7 12 Oeste 19 Oeste 0 896.9 -0.1 63
2020-01-08 20:00:00 7.5 6 Este 11 Sur 0 897 0 58
2020-01-08 19:00:00 9.5 4 Este 20 Sudoeste 0 897.1 0 49
2020-01-08 18:00:00 12.7 5 Sudoeste 20 Sudoeste 0 897 -0.4 43
2020-01-08 17:00:00 15.3 5 Sudeste 13 Sur 0 897 -0.9 35
2020-01-08 16:00:00 16.3 6 Sudeste 21 Sur 0 897.1 -1.7 37
2020-01-08 15:00:00 15.8 10 Sudeste 22 Sur 0 897.4 -2.2 29
2020-01-08 14:00:00 15.3 8 Este 21 Sur 0 897.9 -1.8 31
2020-01-08 13:00:00 13.7 5 Este 18 Sur 0 898.8 -0.6 33
2020-01-08 12:00:00 12.1 10 Sur 18 Sur 0 899.6 0.5 45
2020-01-08 11:00:00 7.2 13 Oeste 19 Oeste 0 899.7 0.8 53
2020-01-08 10:00:00 5.7 9 Noroeste 17 Oeste 0 899.4 0.7 53
2020-01-08 09:00:00 4 8 Oeste 20 Oeste 0 899.1 0.4 54
2020-01-08 08:00:00 3.9 8 Oeste 18 Oeste 0 898.9 0.1 53
2020-01-08 07:00:00 4 8 Oeste 22 Oeste 0 898.7 -0.4 51
2020-01-08 06:00:00 3.1 10 Noroeste 21 Oeste 0 898.7 -0.5 51
2020-01-08 05:00:00 4.1 8 Noroeste 15 Oeste 0 898.8 -0.5 47
2020-01-08 04:00:00 4.4 7 Noroeste 18 Oeste 0 899.1 -0.7 45
2020-01-08 03:00:00 4.5 8 Noroeste 17 Oeste 0 899.2 -0.7 43
2020-01-08 02:00:00 4 8 Noroeste 18 Oeste 0 899.3 -0.5 47
2020-01-08 01:00:00 3.8 6 Oeste 19 Oeste 0 899.8 -0.1 47
2020-01-08 00:00:00 4.9 6 Norte 22 Oeste 0 899.9 0.3 44
2020-01-07 23:00:00 4.7 11 Noroeste 23 Noroeste 0 899.8 0.2 46
2020-01-07 22:00:00 5.2 11 Noroeste 20 Oeste 0 899.9 0.5 49
2020-01-07 21:00:00 6.1 11 Noroeste 21 Oeste 0 899.6 0.3 49
2020-01-07 20:00:00 6.3 12 Noroeste 21 Oeste 0 899.6 0.3 57
2020-01-07 19:00:00 6.7 6 Norte 14 Oeste 0 899.4 0.5 64
2020-01-07 18:00:00 8.8 3 Norte 14 Oeste 0 899.3 0.4 55
2020-01-07 17:00:00 12.5 7 Nordeste 12 Este 0 899.3 -0.2 43
2020-01-07 16:00:00 15.6 7 Este 14 Sudeste 0 898.9 -1.3 30
2020-01-07 15:00:00 15.6 9 Sudeste 17 Sudeste 0 898.9 -1.8 26
2020-01-07 14:00:00 15.1 4 Este 18 Sur 0 899.5 -1.3 24
2020-01-07 13:00:00 14.2 9 Sur 19 Oeste 0 900.2 -0.3 33
2020-01-07 12:00:00 9.7 11 Oeste 20 Oeste 0 900.7 0.7 39
2020-01-07 11:00:00 6.5 9 Noroeste 17 Oeste 0 900.8 1 39
2020-01-07 10:00:00 2.8 8 Noroeste 18 Oeste 0 900.5 0.9 48
2020-01-07 09:00:00 1.9 9 Noroeste 14 Oeste 0 900 0.6 49
2020-01-07 08:00:00 1.4 8 Noroeste 17 Oeste 0 899.8 0.2 46
2020-01-07 07:00:00 1.5 7 Oeste 15 Oeste 0 899.6 -0.2 51
2020-01-07 06:00:00 0.9 8 Oeste 15 Oeste 0 899.4 -0.2 51
2020-01-07 05:00:00 0.5 6 Oeste 15 Oeste 0 899.6 0.2 57
2020-01-07 04:00:00 1.3 7 Noroeste 13 Noroeste 0 899.8 0.3 57
2020-01-07 03:00:00 0.8 5 Oeste 10 Oeste 0 899.6 0.1 63
2020-01-07 02:00:00 0.8 3 Oeste 12 Noroeste 0 899.4 -0.1 70
2020-01-07 01:00:00 0.2 4 Oeste 13 Oeste 0 899.5 0.2 73
2020-01-07 00:00:00 0.4 8 Noroeste 14 Oeste 0 899.5 0.6 78
2020-01-06 23:00:00 0.2 2 Oeste 11 Oeste 0 899.5 1.4 87
2020-01-06 22:00:00 0.2 3 Oeste 18 Sur 0 899.3 1.4 90
2020-01-06 21:00:00 -1.3 9 Sur 20 Sur 0 898.9 1.7 88
2020-01-06 20:00:00 0.5 6 Noroeste 13 Noroeste 0 898.1 1.6 85
2020-01-06 19:00:00 1.4 5 Noroeste 15 Oeste 0 897.9 2.1 80
2020-01-06 18:00:00 3.2 8 Noroeste 12 Oeste 0 897.2 1.6 70
2020-01-06 17:00:00 5.9 5 Nordeste 11 Oeste 0 896.5 0.8 64
2020-01-06 16:00:00 7.9 6 Este 12 Sur 0 895.8 -0.8 57
2020-01-06 15:00:00 9.9 8 Sur 15 Sur 0 895.6 -1.5 50
2020-01-06 14:00:00 11.6 12 Sur 17 Este 0 895.7 -1.2 43
2020-01-06 13:00:00 8.9 6 Este 12 Sur 0 896.6 -0.3 39
2020-01-06 12:00:00 7.1 2 Sur 10 Oeste 0 897.1 1 51
2020-01-06 11:00:00 6.1 3 Sudeste 18 Sur 0 896.9 1.3 41
2020-01-06 10:00:00 2.2 5 Noroeste 17 Oeste 0 896.9 1.4 45